createdAt,value
2022-09-13T00:01:14.781Z,99907.65
2022-09-13T00:03:47.348Z,99909.80
2022-09-13T00:06:21.592Z,99911.84
2022-09-13T00:08:55.008Z,99913.28
2022-09-13T00:11:29.219Z,99914.40
2022-09-13T00:14:01.808Z,99911.99
2022-09-13T00:16:33.815Z,99915.14
2022-09-13T00:19:06.603Z,99912.53
2022-09-13T00:21:38.491Z,99910.83
2022-09-13T00:24:11.418Z,99909.14
2022-09-13T00:26:43.239Z,99909.77
2022-09-13T00:29:15.207Z,99907.92
2022-09-13T00:31:47.156Z,99906.40
2022-09-13T00:34:19.338Z,99905.31
2022-09-13T00:36:51.199Z,99905.02
2022-09-13T00:39:23.153Z,99907.52
2022-09-13T00:41:55.125Z,99906.76
2022-09-13T00:44:55.250Z,99902.27
2022-09-13T00:47:33.463Z,99904.65
2022-09-13T00:50:12.883Z,99902.31
2022-09-13T00:52:48.105Z,99906.42
2022-09-13T00:55:25.582Z,99907.25
2022-09-13T00:58:03.005Z,99906.50
2022-09-13T01:00:34.870Z,99905.73
2022-09-13T01:03:12.013Z,99908.41
2022-09-13T01:05:48.689Z,99906.08
2022-09-13T01:08:23.185Z,99904.69
2022-09-13T01:10:58.290Z,99904.34
2022-09-13T01:13:32.958Z,99904.95
2022-09-13T01:16:05.106Z,99902.16
2022-09-13T01:18:37.348Z,99900.98
2022-09-13T01:21:54.092Z,99896.05
2022-09-13T01:24:55.411Z,99895.06
2022-09-13T01:27:42.241Z,99892.09
2022-09-13T01:30:19.141Z,99897.33
2022-09-13T01:33:08.058Z,99891.89
2022-09-13T01:35:55.998Z,99888.64
2022-09-13T01:38:46.058Z,99887.73
2022-09-13T01:41:36.173Z,99891.63
2022-09-13T01:44:16.944Z,99889.69
2022-09-13T01:46:53.313Z,99890.87
2022-09-13T01:49:34.236Z,99888.67
2022-09-13T01:52:12.972Z,99883.98
2022-09-13T01:54:55.242Z,99881.50
2022-09-13T01:57:33.615Z,99881.41
2022-09-13T02:00:10.724Z,99878.27
2022-09-13T02:02:50.948Z,99878.67
2022-09-13T02:05:30.106Z,99879.30
2022-09-13T02:08:06.997Z,99881.11
2022-09-13T02:10:41.035Z,99872.69
2022-09-13T02:13:19.419Z,99873.55
2022-09-13T02:15:57.325Z,99870.17
2022-09-13T02:18:36.122Z,99869.00
2022-09-13T02:21:11.925Z,99868.21
2022-09-13T02:23:48.643Z,99867.14
2022-09-13T02:26:22.590Z,99865.68
2022-09-13T02:28:57.086Z,99861.61
2022-09-13T02:31:35.248Z,99857.94
2022-09-13T02:34:12.493Z,99858.60
2022-09-13T02:36:47.519Z,99860.98
2022-09-13T02:39:23.644Z,99851.67
2022-09-13T02:42:01.649Z,99851.39
2022-09-13T02:44:37.930Z,99854.98
2022-09-13T02:47:25.514Z,99854.54
2022-09-13T02:50:07.144Z,99850.45
2022-09-13T02:52:51.423Z,99850.23
2022-09-13T02:55:29.512Z,99847.67
2022-09-13T02:58:10.863Z,99845.48
2022-09-13T03:00:43.219Z,99841.43
2022-09-13T03:03:17.279Z,99844.23
2022-09-13T03:05:49.395Z,99837.19
2022-09-13T03:08:22.850Z,99836.83
2022-09-13T03:11:03.388Z,99837.48
2022-09-13T03:13:54.915Z,99832.16
2022-09-13T03:16:43.012Z,99833.55
2022-09-13T03:19:31.362Z,99830.23
2022-09-13T03:22:19.041Z,99826.05
2022-09-13T03:25:00.076Z,99824.98
2022-09-13T03:27:36.689Z,99820.76
2022-09-13T03:30:10.447Z,99818.93
2022-09-13T03:32:51.917Z,99821.97
2022-09-13T03:35:33.773Z,99816.92
2022-09-13T03:38:10.826Z,99816.84
2022-09-13T03:40:50.266Z,99811.54
2022-09-13T03:43:26.195Z,99811.34
2022-09-13T03:46:03.957Z,99812.08
2022-09-13T03:48:38.980Z,99808.64
2022-09-13T03:51:12.465Z,99808.35
2022-09-13T03:53:48.684Z,99812.05
2022-09-13T03:56:21.946Z,99807.62
2022-09-13T03:58:53.955Z,99808.70
2022-09-13T04:01:27.071Z,99806.62
2022-09-13T04:03:59.211Z,99801.55
2022-09-13T04:06:31.112Z,99801.99
2022-09-13T04:09:03.055Z,99801.82
2022-09-13T04:11:34.905Z,99798.70
2022-09-13T04:14:06.712Z,99794.70
2022-09-13T04:16:38.691Z,99798.52
2022-09-13T04:19:10.726Z,99800.24
2022-09-13T04:21:42.557Z,99801.22
2022-09-13T04:24:15.225Z,99801.42
2022-09-13T04:26:49.921Z,99798.30
2022-09-13T04:29:22.906Z,99799.66
2022-09-13T04:31:56.456Z,99804.03
2022-09-13T04:34:28.777Z,99801.77
2022-09-13T04:37:00.741Z,99802.84
2022-09-13T04:39:32.596Z,99801.16
2022-09-13T04:42:04.881Z,99801.54
2022-09-13T04:44:37.180Z,99801.77
2022-09-13T04:47:09.822Z,99805.13
2022-09-13T04:49:42.018Z,99800.59
2022-09-13T04:52:14.012Z,99800.81
2022-09-13T04:54:47.779Z,99801.01
2022-09-13T04:57:19.619Z,99800.75
2022-09-13T04:59:51.360Z,99801.06
2022-09-13T05:02:23.370Z,99796.08
2022-09-13T05:04:55.338Z,99793.46
2022-09-13T05:07:27.195Z,99797.15
2022-09-13T05:09:59.105Z,99788.70
2022-09-13T05:12:31.221Z,99786.21
2022-09-13T05:15:03.081Z,99786.16
2022-09-13T05:17:34.961Z,99783.69
2022-09-13T05:20:08.632Z,99779.27
2022-09-13T05:22:40.449Z,99776.04
2022-09-13T05:25:12.714Z,99774.56
2022-09-13T05:27:46.168Z,99778.88
2022-09-13T05:30:18.033Z,99780.12
2022-09-13T05:32:49.908Z,99777.92
2022-09-13T05:35:22.355Z,99778.52
2022-09-13T05:37:54.225Z,99775.19
2022-09-13T05:40:26.516Z,99768.17
2022-09-13T05:42:58.605Z,99767.70
2022-09-13T05:45:30.711Z,99760.56
2022-09-13T05:48:02.961Z,99759.71
2022-09-13T05:50:57.644Z,99745.91
2022-09-13T05:53:30.125Z,99741.00
2022-09-13T05:56:02.152Z,99731.70
2022-09-13T05:58:35.202Z,99731.73
2022-09-13T06:01:07.260Z,99729.05
2022-09-13T06:03:39.477Z,99720.86
2022-09-13T06:06:12.936Z,99718.86
2022-09-13T06:08:45.257Z,99716.38
2022-09-13T06:11:18.007Z,99714.33
2022-09-13T06:13:50.032Z,99713.09
2022-09-13T06:16:23.086Z,99710.65
2022-09-13T06:18:55.112Z,99709.84
2022-09-13T06:21:29.283Z,99712.56
2022-09-13T06:24:01.853Z,99718.99
2022-09-13T06:26:33.780Z,99715.56
2022-09-13T06:29:05.773Z,99715.07
2022-09-13T06:31:39.209Z,99715.71
2022-09-13T06:34:15.656Z,99720.73
2022-09-13T06:36:47.703Z,99719.79
2022-09-13T06:39:19.492Z,99718.77
2022-09-13T06:41:51.377Z,99724.96
2022-09-13T06:44:26.067Z,99717.77
2022-09-13T06:46:57.991Z,99720.14
2022-09-13T06:49:31.567Z,99718.86
2022-09-13T06:52:03.947Z,99712.73
2022-09-13T06:54:35.746Z,99715.10
2022-09-13T06:57:08.133Z,99715.35
2022-09-13T06:59:39.931Z,99711.69
2022-09-13T07:02:13.495Z,99711.36
2022-09-13T07:04:45.529Z,99712.77
2022-09-13T07:07:17.399Z,99711.11
2022-09-13T07:09:51.714Z,99712.73
2022-09-13T07:12:23.800Z,99710.27
2022-09-13T07:14:56.026Z,99707.98
2022-09-13T07:17:31.476Z,99711.02
2022-09-13T07:20:06.076Z,99710.17
2022-09-13T07:22:38.067Z,99710.11
2022-09-13T07:25:11.370Z,99709.61
2022-09-13T07:27:43.312Z,99705.42
2022-09-13T07:30:15.598Z,99701.40
2022-09-13T07:32:47.504Z,99699.48
2022-09-13T07:35:19.517Z,99699.70
2022-09-13T07:37:53.136Z,99700.05
2022-09-13T07:40:25.488Z,99697.65
2022-09-13T07:42:57.694Z,99698.92
2022-09-13T07:45:29.740Z,99696.58
2022-09-13T07:48:02.386Z,99700.58
2022-09-13T07:50:34.474Z,99695.53
2022-09-13T07:53:06.386Z,99697.37
2022-09-13T07:55:38.289Z,99698.30
2022-09-13T07:58:10.340Z,99700.70
2022-09-13T08:00:42.385Z,99700.20
2022-09-13T08:03:14.697Z,99699.52
2022-09-13T08:05:46.769Z,99699.80
2022-09-13T08:08:20.204Z,99701.45
2022-09-13T08:10:52.266Z,99696.15
2022-09-13T08:13:24.806Z,99695.33
2022-09-13T08:15:57.382Z,99691.96
2022-09-13T08:18:29.469Z,99691.31
2022-09-13T08:21:02.592Z,99687.54
2022-09-13T08:23:34.518Z,99681.80
2022-09-13T08:26:08.088Z,99685.08
2022-09-13T08:28:41.305Z,99686.77
2022-09-13T08:31:17.115Z,99684.83
2022-09-13T08:33:50.296Z,99687.52
2022-09-13T08:36:24.130Z,99690.88
2022-09-13T08:38:59.359Z,99684.61
2022-09-13T08:41:57.236Z,99686.80
2022-09-13T08:44:32.597Z,99685.52
2022-09-13T08:47:28.365Z,99689.90
2022-09-13T08:50:07.595Z,99684.41
2022-09-13T08:52:48.152Z,99680.84
2022-09-13T08:55:29.911Z,99680.00
2022-09-13T08:58:15.889Z,99676.61
2022-09-13T18:07:32.969Z,99227.63
2022-09-13T18:10:16.077Z,99225.71
2022-09-13T18:12:57.331Z,99226.50
2022-09-13T18:15:29.399Z,99229.52
2022-09-13T18:18:01.252Z,99228.34
2022-09-13T18:20:35.330Z,99225.71
2022-09-13T18:23:10.813Z,99219.52
2022-09-13T18:25:42.720Z,99219.48
2022-09-13T18:28:15.451Z,99212.05
2022-09-13T18:30:56.245Z,99209.06
2022-09-13T18:33:29.942Z,99204.49
2022-09-13T18:36:04.698Z,99201.89
2022-09-13T18:38:38.490Z,99201.07
2022-09-13T18:41:12.801Z,99199.81
2022-09-13T18:43:55.119Z,99194.55
2022-09-13T18:46:31.861Z,99188.02
2022-09-13T18:49:05.043Z,99184.27
2022-09-13T18:51:38.564Z,99179.80
2022-09-13T18:54:12.804Z,99176.89
2022-09-13T18:56:44.850Z,99176.79
2022-09-13T18:59:16.882Z,99173.95
2022-09-13T19:01:48.938Z,99171.58
2022-09-13T19:04:22.039Z,99169.16
2022-09-13T19:06:56.143Z,99165.41
2022-09-13T19:09:28.069Z,99165.30
2022-09-13T19:11:59.962Z,99164.30
2022-09-13T19:14:32.624Z,99164.23
2022-09-13T19:17:04.805Z,99159.01
2022-09-13T19:19:36.686Z,99163.52
2022-09-13T19:22:08.584Z,99156.61
2022-09-13T19:24:40.722Z,99161.05
2022-09-13T19:27:13.409Z,99157.58
2022-09-13T19:29:45.275Z,99158.69
2022-09-13T19:32:17.100Z,99156.48
2022-09-13T19:34:48.996Z,99158.84
2022-09-13T19:37:20.894Z,99155.73
2022-09-13T19:39:53.860Z,99152.26
2022-09-13T19:42:25.785Z,99140.84
2022-09-13T19:44:57.577Z,99134.77
2022-09-13T19:48:12.995Z,99133.37
2022-09-13T19:50:21.556Z,99130.65
2022-09-13T19:52:53.712Z,99133.21
2022-09-13T19:55:25.548Z,99125.41
2022-09-13T19:57:57.933Z,99126.02
2022-09-13T20:00:30.295Z,99125.32
2022-09-13T20:03:03.573Z,99126.60
2022-09-13T20:05:37.364Z,99120.24
2022-09-13T20:08:09.326Z,99118.38
2022-09-13T20:10:41.389Z,99120.52
2022-09-13T20:13:13.236Z,99107.25
2022-09-13T20:15:45.508Z,99113.25
2022-09-13T20:18:17.450Z,99111.29
2022-09-13T20:20:50.287Z,99112.75
2022-09-13T20:23:23.675Z,99112.24
2022-09-13T20:25:55.530Z,99101.30
2022-09-13T20:28:27.825Z,99100.38
2022-09-13T20:31:01.933Z,99098.48
2022-09-13T20:33:35.826Z,99090.27
2022-09-13T20:36:09.588Z,99091.31
2022-09-13T20:38:42.189Z,99089.41
2022-09-13T20:41:15.841Z,99090.15
2022-09-13T20:43:49.376Z,99089.44
2022-09-13T20:46:22.714Z,99084.17
2022-09-13T20:48:54.545Z,99081.22
2022-09-13T20:51:30.463Z,99081.78
2022-09-13T20:54:05.121Z,99081.31
2022-09-13T20:56:36.978Z,99081.93
2022-09-13T20:59:08.871Z,99075.66
2022-09-13T21:01:41.603Z,99073.28
2022-09-13T21:04:13.672Z,99069.27
2022-09-13T21:06:59.452Z,99067.73
2022-09-13T21:09:32.926Z,99063.73
2022-09-13T21:12:07.389Z,99065.92
2022-09-13T21:14:39.285Z,99067.91
2022-09-13T21:17:11.605Z,99070.52
2022-09-13T21:19:43.582Z,99066.30
2022-09-13T21:22:15.617Z,99070.29
2022-09-13T21:24:47.881Z,99065.77
2022-09-13T21:27:20.021Z,99064.70
2022-09-13T21:29:51.892Z,99062.96
2022-09-13T21:32:23.691Z,99063.05
2022-09-13T21:34:55.791Z,99058.73
2022-09-13T21:37:27.969Z,99057.53
2022-09-13T21:39:59.769Z,99057.63
2022-09-13T21:42:32.077Z,99059.02
2022-09-13T21:45:04.181Z,99055.73
2022-09-13T21:47:36.061Z,99061.83
2022-09-13T21:50:09.664Z,99061.91
2022-09-13T21:52:41.467Z,99059.39
2022-09-13T21:55:13.670Z,99056.80
2022-09-13T21:57:46.905Z,99054.61
2022-09-13T22:00:19.669Z,99042.29
2022-09-13T22:02:51.742Z,99046.20
2022-09-13T22:05:23.695Z,99044.23
2022-09-13T22:07:55.497Z,99041.91
2022-09-13T22:10:27.461Z,99039.90
2022-09-13T22:12:59.928Z,99036.48
2022-09-13T22:15:32.332Z,99031.35
2022-09-13T22:18:04.813Z,99030.19
2022-09-13T22:20:38.989Z,99027.83
2022-09-13T22:23:11.115Z,99023.41
2022-09-13T22:25:44.657Z,99024.11
2022-09-13T22:28:16.451Z,99023.58
2022-09-13T22:30:48.374Z,99021.46
2022-09-13T22:33:20.252Z,99016.73
2022-09-13T22:36:03.213Z,99012.66
2022-09-13T22:38:35.987Z,99012.23
2022-09-13T22:41:11.393Z,99008.16
2022-09-13T22:43:44.165Z,99006.23
2022-09-13T22:46:19.615Z,99008.44
2022-09-13T22:48:51.735Z,99006.58
2022-09-13T22:51:24.475Z,99004.19
2022-09-13T22:53:57.040Z,99006.98
2022-09-13T22:56:30.812Z,99011.39
2022-09-13T22:59:06.051Z,99011.63
2022-09-13T23:01:38.366Z,99010.02
2022-09-13T23:04:10.802Z,99004.85
2022-09-13T23:06:44.318Z,99002.23
2022-09-13T23:09:19.247Z,98999.60
2022-09-13T23:11:51.616Z,99001.97
2022-09-13T23:14:23.517Z,99002.10
2022-09-13T23:16:55.479Z,99000.24
2022-09-13T23:19:28.294Z,99001.81
2022-09-13T23:22:00.113Z,99001.53
2022-09-13T23:24:31.962Z,98998.67
2022-09-13T23:27:03.923Z,98997.71
2022-09-13T23:29:35.737Z,98997.97
2022-09-13T23:32:08.277Z,98998.30
2022-09-13T23:34:40.209Z,99003.89
2022-09-13T23:37:12.055Z,99002.78
2022-09-13T23:39:43.993Z,99007.29
2022-09-13T23:42:15.901Z,99012.46
2022-09-13T23:44:48.016Z,99010.14
2022-09-13T23:47:20.134Z,99014.19
2022-09-13T23:49:52.097Z,99004.23
2022-09-13T23:52:23.871Z,99002.30
2022-09-13T23:54:57.199Z,99006.43
2022-09-13T23:57:29.041Z,99001.23
